Terminal Aerodrome Forecast
Issued by NWS

Home | Current Version | Previous Version | Text Only | Print | Product List | Glossary On
Versions: 1 2 3 4 5 6 7 8 9 10 11 12 13 14 15 16
000
FTUS41 KBTV 291737
TAFRUT
TAF
KRUT 291737Z 2918/3018 24004KT P6SM FEW050
     FM300000 13008KT P6SM SKC
     FM300900 14011KT P6SM SCT150
     FM301100 15010KT P6SM SCT100
     FM301400 18009KT P6SM BKN080
      AMD LTD TO CLD VIS AND WIND=

USA.gov is the U.S. government's official web portal to all federal, state and local government web resources and services.